Time;durP1;ratioP1;P1;durP2;ratioP2;P2;SDS_P1;SDS_P2;PMS_P1;PMS_P2;Temp;Humidity;BMP_temperature;BMP_pressure;BME280_temperature;BME280_humidity;BME280_pressure;Samples;Min_cycle;Max_cycle;Signal;HPM_P1;HPM_P2
2021/05/23 00:00:23;;;;;;;0.87;0.87;;;;;;;11.98;65.11;96352.22;5030915;28;20234;-69
2021/05/23 00:02:49;;;;;;;1.60;0.70;;;;;;;12.04;64.67;96355.69;5030493;28;20233;-70
2021/05/23 00:05:17;;;;;;;2.10;0.87;;;;;;;11.94;65.13;96356.38;5030541;28;20674;-69
2021/05/23 00:07:50;;;;;;;0.87;0.80;;;;;;;12.11;64.34;96348.44;5031083;28;20197;-69
2021/05/23 00:10:16;;;;;;;1.60;1.13;;;;;;;12.04;64.34;96347.81;5030167;28;20178;-70
2021/05/23 00:12:42;;;;;;;1.07;0.80;;;;;;;11.95;64.50;96354.56;5031043;28;20187;-70
2021/05/23 00:15:09;;;;;;;0.80;0.80;;;;;;;11.97;64.46;96350.66;5030409;28;20235;-70
2021/05/23 00:17:35;;;;;;;1.00;0.90;;;;;;;11.90;65.09;96357.13;5030896;28;20182;-70
2021/05/23 00:20:00;;;;;;;0.80;0.80;;;;;;;12.01;64.41;96359.63;5030506;28;20241;-69
2021/05/23 00:22:26;;;;;;;0.70;0.70;;;;;;;12.02;64.76;96363.84;5031009;28;20289;-69
2021/05/23 00:24:51;;;;;;;0.80;0.80;;;;;;;11.82;65.38;96358.34;5030330;28;20902;-69
2021/05/23 00:27:16;;;;;;;0.80;0.80;;;;;;;11.81;65.64;96359.41;5030566;28;20187;-69
2021/05/23 00:29:42;;;;;;;1.30;0.90;;;;;;;11.83;66.07;96353.88;5030915;28;20205;-69
2021/05/23 00:32:07;;;;;;;2.60;0.87;;;;;;;11.90;65.34;96360.56;5030302;28;20183;-69
2021/05/23 00:34:33;;;;;;;1.10;1.00;;;;;;;11.99;65.12;96356.44;5030865;28;20204;-69
2021/05/23 00:36:58;;;;;;;0.90;0.90;;;;;;;11.93;65.72;96361.88;5029301;28;20198;-69
2021/05/23 00:39:24;;;;;;;0.77;0.77;;;;;;;11.81;65.99;96356.78;5013012;28;20277;-69
2021/05/23 00:41:49;;;;;;;0.70;0.70;;;;;;;11.88;65.36;96370.50;5012932;28;20179;-69
2021/05/23 00:44:14;;;;;;;0.90;0.90;;;;;;;11.90;65.60;96368.44;5030957;28;20224;-69
2021/05/23 00:46:40;;;;;;;0.90;0.90;;;;;;;11.81;65.76;96369.09;5033958;28;20183;-69
2021/05/23 00:49:05;;;;;;;0.90;0.90;;;;;;;11.77;66.60;96375.88;5033622;28;20303;-69
2021/05/23 00:51:31;;;;;;;0.90;0.90;;;;;;;11.76;66.62;96375.06;5034241;28;20191;-69
2021/05/23 00:53:56;;;;;;;1.63;0.90;;;;;;;11.76;66.96;96375.06;5033192;28;20221;-69
2021/05/23 00:56:22;;;;;;;1.80;0.83;;;;;;;11.70;67.41;96368.16;5034325;28;20701;-69
2021/05/23 00:58:47;;;;;;;1.60;0.90;;;;;;;11.59;67.90;96361.19;5016054;28;20178;-69
2021/05/23 01:01:45;;;;;;;0.80;0.80;;;;;;;11.56;68.07;96370.34;5033392;28;20237;-69
2021/05/23 01:04:10;;;;;;;1.03;1.03;;;;;;;11.64;67.61;96363.88;4990939;28;20218;-68
2021/05/23 01:06:36;;;;;;;2.63;0.97;;;;;;;11.50;68.66;96360.81;5033583;28;20193;-69
2021/05/23 01:09:06;;;;;;;0.80;0.80;;;;;;;11.48;68.71;96354.22;5032345;28;20181;-69
2021/05/23 01:11:31;;;;;;;0.80;0.80;;;;;;;11.45;68.94;96365.97;5034040;28;20655;-68
2021/05/23 01:13:57;;;;;;;1.07;1.00;;;;;;;11.46;69.05;96370.19;5033079;28;20222;-69
2021/05/23 01:16:45;;;;;;;2.10;0.90;;;;;;;11.50;69.20;96379.16;5034091;28;20189;-69
2021/05/23 01:19:28;;;;;;;0.77;0.77;;;;;;;11.42;70.20;96381.44;5017954;28;20171;-69
2021/05/23 01:22:03;;;;;;;0.90;0.90;;;;;;;11.43;71.54;96383.78;5032837;28;20181;-69
2021/05/23 01:24:40;;;;;;;1.57;0.87;;;;;;;11.37;71.55;96383.97;5033637;28;20174;-69
2021/05/23 01:27:08;;;;;;;0.80;0.80;;;;;;;11.32;71.52;96389.13;5032725;28;20705;-69
2021/05/23 01:29:33;;;;;;;0.93;0.93;;;;;;;11.34;71.46;96390.50;5033487;28;20183;-69
2021/05/23 01:31:59;;;;;;;2.40;1.17;;;;;;;11.24;71.13;96391.16;5032851;28;20513;-69
2021/05/23 01:34:25;;;;;;;0.80;0.80;;;;;;;11.30;71.09;96389.41;5033634;28;20224;-69
2021/05/23 01:36:54;;;;;;;2.30;1.10;;;;;;;11.33;70.82;96390.72;5032888;28;20632;-69
2021/05/23 01:39:19;;;;;;;1.17;0.70;;;;;;;11.19;71.41;96404.19;5033665;28;20236;-69
2021/05/23 01:41:46;;;;;;;0.80;0.80;;;;;;;11.27;71.23;96397.72;5033154;28;20639;-69
2021/05/23 01:44:12;;;;;;;0.77;0.70;;;;;;;11.35;71.33;96399.97;5032674;28;20281;-69
2021/05/23 01:46:38;;;;;;;0.90;0.90;;;;;;;11.33;71.03;96402.00;5033899;28;20700;-69
2021/05/23 01:49:04;;;;;;;0.90;0.90;;;;;;;11.21;72.20;96399.47;5015123;28;20174;-69
2021/05/23 01:51:30;;;;;;;0.93;0.90;;;;;;;11.41;72.04;96393.75;5033437;28;20542;-69
2021/05/23 01:53:55;;;;;;;0.80;0.80;;;;;;;11.23;73.07;96399.25;5032194;28;20190;-69
2021/05/23 01:56:21;;;;;;;0.97;0.93;;;;;;;11.35;72.20;96393.91;5032929;28;20182;-69
2021/05/23 01:58:46;;;;;;;0.80;0.80;;;;;;;11.23;72.62;96402.66;5033058;28;20670;-69
2021/05/23 02:01:11;;;;;;;0.83;0.83;;;;;;;11.05;73.21;96402.09;5014533;28;20227;-69
2021/05/23 02:03:37;;;;;;;0.97;0.93;;;;;;;11.07;72.83;96400.06;5015707;28;20210;-69
2021/05/23 02:06:04;;;;;;;0.70;0.70;;;;;;;10.99;73.00;96405.69;5032395;28;20186;-69
2021/05/23 02:08:32;;;;;;;0.87;0.80;;;;;;;11.02;73.21;96408.63;5031779;28;20615;-69
2021/05/23 02:11:05;;;;;;;1.33;0.93;;;;;;;11.11;72.60;96409.81;5017257;28;20194;-69
2021/05/23 02:13:30;;;;;;;0.90;0.90;;;;;;;11.16;72.76;96411.72;5032844;28;20273;-69
2021/05/23 02:15:56;;;;;;;0.93;0.93;;;;;;;11.15;72.54;96412.75;5031820;28;20266;-69
2021/05/23 02:18:21;;;;;;;0.90;0.90;;;;;;;11.04;73.38;96411.00;5032804;28;20187;-69
2021/05/23 02:20:47;;;;;;;1.03;0.90;;;;;;;11.09;72.99;96414.50;5033069;28;20178;-68
2021/05/23 02:23:23;;;;;;;2.17;0.90;;;;;;;11.19;72.46;96412.06;5031762;28;20202;-69
2021/05/23 02:25:49;;;;;;;0.77;0.77;;;;;;;11.14;72.91;96411.19;5032333;28;20693;-69
2021/05/23 02:28:15;;;;;;;0.90;0.90;;;;;;;11.00;74.10;96413.31;5014331;28;20185;-69
2021/05/23 02:30:44;;;;;;;0.77;0.77;;;;;;;11.16;72.79;96415.16;5032139;28;20183;-69
2021/05/23 02:33:13;;;;;;;0.70;0.70;;;;;;;11.06;74.36;96438.59;5031821;28;20190;-69
2021/05/23 02:35:42;;;;;;;1.37;0.80;;;;;;;10.94;78.43;96437.88;5021166;28;20550;-68
2021/05/23 02:38:09;;;;;;;1.20;1.10;;;;;;;10.58;84.29;96449.56;5031364;28;20209;-69
2021/05/23 02:40:36;;;;;;;3.53;0.87;;;;;;;10.12;89.56;96449.69;5031943;28;20273;-68
2021/05/23 02:43:02;;;;;;;0.90;0.90;;;;;;;9.87;94.23;96463.03;5031683;28;20597;-68
2021/05/23 02:45:28;;;;;;;0.90;0.90;;;;;;;9.79;94.59;96451.13;5032524;28;20270;-68
2021/05/23 02:47:54;;;;;;;0.90;0.90;;;;;;;9.52;96.54;96469.09;5032002;28;20265;-68
2021/05/23 02:50:27;;;;;;;1.00;1.00;;;;;;;9.47;97.60;96466.34;5031767;28;20179;-68
2021/05/23 02:52:53;;;;;;;1.00;1.00;;;;;;;9.21;97.87;96464.16;5030127;28;20214;-68
2021/05/23 02:55:20;;;;;;;1.00;1.00;;;;;;;9.11;99.96;96454.28;5031206;28;20225;-68
2021/05/23 02:57:46;;;;;;;0.90;0.90;;;;;;;9.05;100.00;96454.38;5032156;28;20270;-69
2021/05/23 03:00:14;;;;;;;1.00;1.00;;;;;;;9.04;100.00;96448.34;5031616;28;20273;-68
2021/05/23 03:02:41;;;;;;;1.07;0.97;;;;;;;9.12;100.00;96449.84;5031538;28;20237;-68
2021/05/23 03:05:09;;;;;;;1.10;1.00;;;;;;;8.86;98.77;96448.41;5013563;28;20274;-68
2021/05/23 03:07:38;;;;;;;0.90;0.90;;;;;;;8.90;99.19;96449.59;5031267;28;20364;-68
2021/05/23 03:10:07;;;;;;;0.90;0.90;;;;;;;8.91;99.76;96447.78;5029995;28;20190;-68
2021/05/23 03:12:32;;;;;;;1.00;1.00;;;;;;;8.96;99.43;96453.13;5031885;28;20244;-68
2021/05/23 03:14:58;;;;;;;1.00;1.00;;;;;;;8.81;99.61;96469.19;5019122;28;20546;-68
2021/05/23 03:17:23;;;;;;;1.00;1.00;;;;;;;8.72;100.00;96462.69;5031679;28;20179;-68
2021/05/23 03:19:48;;;;;;;1.00;1.00;;;;;;;8.73;100.00;96469.53;5031670;28;20581;-68
2021/05/23 03:22:14;;;;;;;1.03;1.03;;;;;;;8.73;99.04;96472.13;5030581;28;20203;-68
2021/05/23 03:24:39;;;;;;;1.10;1.10;;;;;;;8.72;99.74;96473.16;5013993;28;20628;-68
2021/05/23 03:27:05;;;;;;;0.90;0.90;;;;;;;8.63;100.00;96479.72;5030766;28;20174;-68
2021/05/23 03:29:30;;;;;;;1.10;1.10;;;;;;;8.71;100.00;96482.81;5031546;28;20198;-68
2021/05/23 03:31:55;;;;;;;0.90;0.90;;;;;;;8.64;99.76;96486.50;5031436;28;20198;-68
2021/05/23 03:34:22;;;;;;;1.03;1.00;;;;;;;8.62;99.48;96484.16;5030532;28;20265;-67
2021/05/23 03:36:47;;;;;;;1.00;1.00;;;;;;;8.72;100.00;96487.00;5030928;28;20655;-66
2021/05/23 03:39:12;;;;;;;0.90;0.90;;;;;;;8.65;100.00;96488.91;5030661;28;20189;-67
2021/05/23 03:41:38;;;;;;;1.00;1.00;;;;;;;8.69;100.00;96495.28;5031484;28;20197;-66
2021/05/23 03:44:03;;;;;;;0.97;0.97;;;;;;;8.70;100.00;96496.06;5012548;28;20255;-68
2021/05/23 03:46:29;;;;;;;1.40;1.10;;;;;;;8.74;100.00;96503.28;5030946;28;20182;-67
2021/05/23 03:48:54;;;;;;;1.20;1.10;;;;;;;8.90;100.00;96501.84;5031298;28;20217;-67
2021/05/23 03:51:19;;;;;;;1.80;1.00;;;;;;;8.76;100.00;96516.91;5030157;28;20257;-67
2021/05/23 03:53:45;;;;;;;1.00;1.00;;;;;;;8.72;100.00;96507.13;5031344;28;20190;-68
2021/05/23 03:56:10;;;;;;;1.00;1.00;;;;;;;8.69;99.34;96524.03;5030253;28;20658;-69
2021/05/23 03:58:35;;;;;;;1.20;1.20;;;;;;;8.59;99.60;96521.13;5013250;28;20284;-69
2021/05/23 04:01:01;;;;;;;0.97;0.90;;;;;;;8.66;98.83;96524.47;5030476;28;20175;-67
2021/05/23 04:03:28;;;;;;;1.40;1.40;;;;;;;8.66;99.72;96537.53;5030945;28;20285;-67
2021/05/23 04:05:54;;;;;;;0.90;0.90;;;;;;;8.58;99.95;96535.22;5031163;28;20532;-67
2021/05/23 04:08:19;;;;;;;2.10;1.10;;;;;;;8.62;100.00;96539.00;5029481;28;20195;-67
2021/05/23 04:10:54;;;;;;;1.00;1.00;;;;;;;8.61;100.00;96547.84;5030666;28;20194;-68
2021/05/23 04:13:21;;;;;;;1.03;1.03;;;;;;;8.54;100.00;96552.34;5031109;28;20317;-67
2021/05/23 04:15:47;;;;;;;1.13;0.90;;;;;;;8.70;100.00;96543.09;5031562;28;20206;-67
2021/05/23 04:18:12;;;;;;;1.00;1.00;;;;;;;8.65;100.00;96558.66;5030103;28;20182;-68
2021/05/23 04:20:38;;;;;;;1.10;1.10;;;;;;;8.63;100.00;96561.50;5034222;28;20186;-68
2021/05/23 04:23:03;;;;;;;1.00;1.00;;;;;;;8.64;100.00;96570.09;5033912;28;20268;-69
2021/05/23 04:25:29;;;;;;;0.90;0.90;;;;;;;8.55;99.55;96561.78;5034604;28;20201;-67
2021/05/23 04:27:55;;;;;;;1.10;1.10;;;;;;;8.59;99.70;96573.38;5016573;28;20222;-69
2021/05/23 04:30:22;;;;;;;0.90;0.90;;;;;;;8.68;100.00;96576.50;5034633;28;20636;-69
2021/05/23 04:32:48;;;;;;;1.00;1.00;;;;;;;8.72;100.00;96569.81;5034948;28;20670;-68
2021/05/23 04:35:15;;;;;;;1.00;1.00;;;;;;;8.78;99.78;96563.72;5032517;28;20186;-67
2021/05/23 04:37:41;;;;;;;1.00;1.00;;;;;;;8.74;99.79;96571.22;5034680;28;20183;-68
2021/05/23 04:40:08;;;;;;;1.07;1.07;;;;;;;8.77;99.16;96576.00;5034227;28;20198;-70
2021/05/23 04:42:34;;;;;;;1.50;1.03;;;;;;;8.79;99.64;96581.00;5034734;28;20206;-68
2021/05/23 04:44:59;;;;;;;1.10;1.10;;;;;;;8.91;99.08;96575.84;5034001;28;20175;-68
2021/05/23 04:47:27;;;;;;;0.83;0.83;;;;;;;8.80;98.87;96581.81;5017055;28;20191;-69
2021/05/23 04:49:52;;;;;;;0.90;0.90;;;;;;;8.71;98.81;96586.50;5034210;28;20181;-68
2021/05/23 04:52:18;;;;;;;0.87;0.87;;;;;;;8.83;98.96;96590.00;5033774;28;20178;-67
2021/05/23 04:54:43;;;;;;;0.97;0.97;;;;;;;8.88;98.43;96592.75;5033997;28;20187;-69
2021/05/23 04:57:09;;;;;;;1.03;1.03;;;;;;;8.89;97.89;96591.72;5033683;28;20183;-67
2021/05/23 04:59:35;;;;;;;1.20;1.20;;;;;;;8.96;98.53;96591.66;5033499;28;20214;-68
2021/05/23 05:02:02;;;;;;;0.97;0.97;;;;;;;8.91;98.83;96600.16;5033436;28;20234;-69
2021/05/23 05:04:27;;;;;;;1.00;1.00;;;;;;;8.92;97.73;96611.38;5034288;28;20198;-69
2021/05/23 05:06:53;;;;;;;0.90;0.90;;;;;;;9.10;96.97;96616.59;5034504;28;20237;-68
2021/05/23 05:09:18;;;;;;;1.13;1.03;;;;;;;9.03;96.92;96623.72;5032326;28;20645;-67
2021/05/23 05:11:43;;;;;;;1.10;1.10;;;;;;;9.17;96.56;96627.75;5034329;28;20209;-69
2021/05/23 05:14:10;;;;;;;0.90;0.90;;;;;;;9.21;96.24;96626.28;5033228;28;20254;-70
2021/05/23 05:16:37;;;;;;;1.10;1.10;;;;;;;9.39;95.78;96628.06;5016347;28;20186;-69
2021/05/23 05:19:03;;;;;;;0.83;0.83;;;;;;;9.24;95.46;96638.94;5033028;28;20236;-68
2021/05/23 05:21:28;;;;;;;0.90;0.90;;;;;;;9.31;95.72;96644.88;4999792;28;20267;-68
2021/05/23 05:23:53;;;;;;;0.73;0.73;;;;;;;9.40;95.54;96640.13;5033645;28;20206;-68
2021/05/23 05:26:19;;;;;;;0.93;0.93;;;;;;;9.48;95.48;96643.22;5014847;28;20187;-68
2021/05/23 05:28:44;;;;;;;1.10;1.10;;;;;;;9.52;95.41;96646.22;5033765;28;20218;-68
2021/05/23 05:31:10;;;;;;;1.00;1.00;;;;;;;9.51;95.00;96648.03;5032162;28;20225;-68
2021/05/23 05:33:36;;;;;;;1.03;1.03;;;;;;;9.64;94.02;96644.41;5033489;28;20218;-68
2021/05/23 05:36:01;;;;;;;0.87;0.87;;;;;;;9.70;94.91;96650.56;5031827;28;20678;-68
2021/05/23 05:38:26;;;;;;;1.20;1.20;;;;;;;9.82;94.96;96659.25;5015736;28;20189;-68
2021/05/23 05:40:52;;;;;;;0.97;0.97;;;;;;;9.90;93.89;96670.19;5033554;28;20182;-68
2021/05/23 05:43:18;;;;;;;1.03;1.03;;;;;;;10.14;92.51;96676.25;5032498;28;20229;-68
2021/05/23 05:45:44;;;;;;;0.90;0.90;;;;;;;10.21;92.02;96687.44;5033431;28;20248;-68
2021/05/23 05:48:09;;;;;;;1.40;1.30;;;;;;;10.11;92.81;96684.56;5032764;28;20716;-68
2021/05/23 05:50:35;;;;;;;1.00;1.00;;;;;;;10.18;92.83;96692.34;5033317;28;20182;-69
2021/05/23 05:53:00;;;;;;;1.03;1.03;;;;;;;10.26;91.04;96692.00;5014295;28;20197;-68
2021/05/23 05:55:26;;;;;;;1.07;1.07;;;;;;;10.21;92.01;96692.69;5033135;28;20190;-68
2021/05/23 05:57:51;;;;;;;1.20;1.20;;;;;;;10.23;91.34;96698.50;5033184;28;20258;-68
2021/05/23 06:00:17;;;;;;;1.00;1.00;;;;;;;10.23;90.50;96695.91;5032187;28;20175;-68
2021/05/23 06:02:42;;;;;;;1.10;1.00;;;;;;;10.28;89.67;96706.50;5015112;28;20242;-68
2021/05/23 06:05:08;;;;;;;0.90;0.90;;;;;;;10.49;89.83;96712.19;5032350;28;20183;-68
2021/05/23 06:07:33;;;;;;;0.90;0.90;;;;;;;10.56;89.55;96718.94;5033028;28;20186;-68
2021/05/23 06:09:59;;;;;;;1.00;1.00;;;;;;;10.65;88.51;96728.03;5032517;28;20631;-68
2021/05/23 06:12:24;;;;;;;1.20;1.10;;;;;;;10.51;87.70;96725.88;5032327;28;20562;-68
2021/05/23 06:14:50;;;;;;;0.80;0.80;;;;;;;10.53;87.24;96724.63;5032931;28;20194;-68
2021/05/23 06:17:16;;;;;;;0.90;0.90;;;;;;;10.46;89.29;96731.81;5032053;28;21015;-68
2021/05/23 06:19:41;;;;;;;0.97;0.97;;;;;;;10.71;87.68;96729.75;5032994;28;20236;-68
2021/05/23 06:22:06;;;;;;;0.90;0.90;;;;;;;10.65;88.24;96728.03;5031855;28;20564;-68
2021/05/23 06:24:32;;;;;;;0.80;0.80;;;;;;;10.84;87.20;96723.47;5032991;28;20202;-68
2021/05/23 06:26:58;;;;;;;1.13;1.10;;;;;;;10.92;87.19;96728.38;5032112;28;20588;-68
2021/05/23 06:29:23;;;;;;;1.07;0.70;;;;;;;11.03;85.10;96721.53;5031851;28;20202;-68
2021/05/23 06:31:48;;;;;;;2.30;1.40;;;;;;;10.94;85.91;96722.88;5032290;28;20197;-67
2021/05/23 06:34:14;;;;;;;0.90;0.90;;;;;;;11.21;84.13;96721.34;5031272;28;20186;-67
2021/05/23 06:36:39;;;;;;;0.80;0.80;;;;;;;11.49;84.22;96728.47;5032140;28;20193;-66
2021/05/23 06:39:06;;;;;;;0.70;0.70;;;;;;;11.62;83.67;96729.00;5031800;28;20240;-67
2021/05/23 06:41:31;;;;;;;1.17;0.90;;;;;;;11.92;81.27;96723.56;5031415;28;20183;-67
2021/05/23 06:43:57;;;;;;;0.93;0.93;;;;;;;12.00;80.69;96725.78;5032042;28;20666;-67
2021/05/23 06:46:22;;;;;;;0.90;0.90;;;;;;;12.04;79.80;96729.50;5031745;28;20377;-68
2021/05/23 06:48:48;;;;;;;0.90;0.90;;;;;;;11.97;79.20;96731.50;5032047;28;20179;-68
2021/05/23 06:51:13;;;;;;;0.80;0.80;;;;;;;11.73;80.15;96737.06;5031859;28;20225;-67
2021/05/23 06:53:39;;;;;;;1.00;1.00;;;;;;;11.44;79.95;96739.66;5032082;28;20190;-68
2021/05/23 06:56:05;;;;;;;0.87;0.87;;;;;;;11.50;80.08;96743.19;5013601;28;20210;-67
2021/05/23 06:58:31;;;;;;;0.80;0.80;;;;;;;11.46;80.40;96742.88;5031503;28;20182;-68
2021/05/23 07:00:56;;;;;;;0.73;0.73;;;;;;;11.59;79.07;96744.44;5031747;28;20699;-68
2021/05/23 07:03:22;;;;;;;0.80;0.80;;;;;;;11.70;79.66;96748.03;5030888;28;20217;-67
2021/05/23 07:05:47;;;;;;;0.80;0.80;;;;;;;11.99;78.40;96739.13;5031540;28;20265;-67
2021/05/23 07:08:13;;;;;;;0.77;0.77;;;;;;;12.18;76.97;96745.78;5030237;28;20210;-68
2021/05/23 07:10:38;;;;;;;0.70;0.70;;;;;;;12.17;76.04;96748.66;5031672;28;20182;-68
2021/05/23 07:13:04;;;;;;;0.80;0.80;;;;;;;12.31;75.02;96742.88;5030386;28;20199;-67
2021/05/23 07:15:29;;;;;;;1.03;0.90;;;;;;;12.33;75.47;96738.16;5031400;28;20683;-69
2021/05/23 07:17:57;;;;;;;0.60;0.60;;;;;;;12.50;74.93;96743.41;5031856;28;20187;-67
2021/05/23 07:20:23;;;;;;;0.70;0.70;;;;;;;12.86;72.96;96747.38;5031187;28;20198;-68
2021/05/23 07:22:49;;;;;;;0.70;0.70;;;;;;;13.08;72.23;96752.69;5031466;28;20603;-68
2021/05/23 07:25:15;;;;;;;0.50;0.50;;;;;;;13.15;71.79;96759.38;5030644;28;20194;-68
2021/05/23 07:27:40;;;;;;;0.50;0.50;;;;;;;13.19;71.33;96762.31;5031258;28;20194;-69
2021/05/23 07:30:06;;;;;;;0.50;0.50;;;;;;;13.16;69.35;96755.69;5012816;28;20179;-69
2021/05/23 07:32:32;;;;;;;0.60;0.60;;;;;;;13.41;67.90;96754.44;5020270;28;20530;-69
2021/05/23 07:34:57;;;;;;;0.50;0.50;;;;;;;13.41;68.38;96755.25;5024750;28;20197;-69
2021/05/23 07:37:23;;;;;;;0.50;0.50;;;;;;;13.54;66.93;96748.81;5030251;28;20200;-70
2021/05/23 07:39:48;;;;;;;0.50;0.50;;;;;;;13.47;68.03;96746.38;5027888;28;20184;-70
2021/05/23 07:42:14;;;;;;;0.50;0.50;;;;;;;13.70;66.91;96738.22;5002578;28;20655;-70
2021/05/23 07:44:39;;;;;;;1.70;0.73;;;;;;;13.83;65.40;96726.47;5029129;28;20260;-70
2021/05/23 07:47:04;;;;;;;0.50;0.50;;;;;;;13.74;64.25;96743.75;5029986;28;20651;-71
2021/05/23 07:49:30;;;;;;;0.57;0.57;;;;;;;13.30;72.40;96762.22;5031094;28;20221;-69
2021/05/23 07:51:56;;;;;;;0.40;0.40;;;;;;;12.11;75.51;96773.22;5028574;28;20632;-67
2021/05/23 07:54:21;;;;;;;1.47;0.77;;;;;;;11.01;78.47;96776.81;5029078;28;20973;-70
2021/05/23 07:56:46;;;;;;;0.93;0.73;;;;;;;10.72;80.17;96786.41;5031030;28;20240;-69
2021/05/23 07:59:12;;;;;;;0.93;0.93;;;;;;;10.36;82.21;96790.00;5029929;28;20183;-68
2021/05/23 08:01:37;;;;;;;0.90;0.90;;;;;;;10.20;84.54;96782.75;5030744;28;20226;-70
2021/05/23 08:04:03;;;;;;;0.80;0.80;;;;;;;10.15;85.18;96789.66;5029924;28;20225;-70
2021/05/23 08:06:30;;;;;;;0.83;0.70;;;;;;;10.07;85.01;96785.56;5012779;28;20539;-69
2021/05/23 08:08:55;;;;;;;0.90;0.90;;;;;;;9.96;87.23;96792.34;5012799;28;20182;-70
2021/05/23 08:11:21;;;;;;;0.70;0.70;;;;;;;9.98;85.45;96786.88;5029494;28;20191;-69
2021/05/23 08:13:46;;;;;;;1.00;1.00;;;;;;;10.08;86.45;96787.16;5031174;28;20186;-70
2021/05/23 08:16:12;;;;;;;0.93;0.93;;;;;;;10.21;85.44;96783.56;5030191;28;20269;-69
2021/05/23 08:18:38;;;;;;;0.90;0.90;;;;;;;10.26;86.23;96787.09;5029524;28;20186;-69
2021/05/23 08:21:05;;;;;;;0.70;0.70;;;;;;;10.18;88.10;96795.31;5014289;28;20628;-70
2021/05/23 08:23:31;;;;;;;0.90;0.90;;;;;;;10.55;88.40;96788.09;5021913;28;20403;-69
2021/05/23 08:25:58;;;;;;;0.90;0.90;;;;;;;10.88;88.47;96799.84;5011743;28;20212;-69
2021/05/23 08:28:24;;;;;;;0.90;0.90;;;;;;;11.14;87.04;96799.41;5030108;28;20194;-67
2021/05/23 08:30:50;;;;;;;0.90;0.90;;;;;;;11.49;87.54;96792.25;5031002;28;20191;-69
2021/05/23 08:33:16;;;;;;;0.70;0.70;;;;;;;11.72;86.79;96795.84;5027626;28;20644;-68
2021/05/23 08:35:42;;;;;;;1.03;0.80;;;;;;;11.93;87.05;96797.88;5030076;28;20193;-68
2021/05/23 08:38:08;;;;;;;1.40;0.80;;;;;;;12.20;85.06;96806.00;5029863;28;20183;-68
2021/05/23 08:40:37;;;;;;;1.20;0.80;;;;;;;12.25;81.15;96812.13;5030542;28;20547;-68
2021/05/23 08:43:07;;;;;;;1.00;1.00;;;;;;;12.48;82.41;96798.84;5029994;28;20207;-70
2021/05/23 08:45:33;;;;;;;0.80;0.80;;;;;;;12.34;77.63;96799.41;5030624;28;20175;-68
2021/05/23 08:47:58;;;;;;;0.80;0.80;;;;;;;12.29;78.43;96805.38;5012600;28;20237;-68
2021/05/23 08:50:24;;;;;;;0.93;0.80;;;;;;;12.21;77.46;96805.72;5028665;28;20783;-68
2021/05/23 08:52:57;;;;;;;1.43;0.90;;;;;;;12.29;77.64;96808.00;5030018;28;20179;-69
2021/05/23 08:55:22;;;;;;;1.30;0.80;;;;;;;12.50;77.92;96803.88;5029006;28;20614;-70
2021/05/23 08:57:53;;;;;;;0.90;0.90;;;;;;;12.88;76.36;96805.78;5030517;28;20667;-69
2021/05/23 09:00:20;;;;;;;0.60;0.60;;;;;;;13.20;70.16;96798.94;5029903;28;20187;-68
2021/05/23 09:02:56;;;;;;;0.73;0.60;;;;;;;13.60;70.07;96803.13;5011551;28;20226;-69
2021/05/23 09:05:30;;;;;;;0.53;0.53;;;;;;;13.47;65.29;96798.22;5030158;28;20175;-68
2021/05/23 09:07:56;;;;;;;1.23;0.70;;;;;;;13.43;65.39;96799.75;5033738;28;20753;-69
2021/05/23 09:10:34;;;;;;;1.07;0.50;;;;;;;13.57;66.67;96799.16;4997353;28;20225;-68
2021/05/23 09:13:00;;;;;;;0.80;0.57;;;;;;;13.78;65.12;96797.53;5014468;28;20214;-69
2021/05/23 09:15:27;;;;;;;0.60;0.60;;;;;;;14.01;62.51;96805.19;5008610;28;20686;-69
2021/05/23 09:18:10;;;;;;;0.50;0.50;;;;;;;14.52;60.86;96805.72;5033781;28;20210;-69
2021/05/23 09:20:38;;;;;;;0.70;0.70;;;;;;;14.60;61.35;96805.22;5033631;28;20174;-69
2021/05/23 09:23:23;;;;;;;0.50;0.50;;;;;;;15.03;60.44;96806.09;5032552;28;20609;-68
2021/05/23 09:25:49;;;;;;;0.47;0.47;;;;;;;15.12;59.73;96810.66;5016730;28;20652;-71
2021/05/23 09:28:15;;;;;;;1.07;0.73;;;;;;;15.18;57.18;96811.47;5030114;28;20186;-71
2021/05/23 09:30:43;;;;;;;0.60;0.60;;;;;;;14.93;57.91;96812.13;5026883;28;20185;-70
2021/05/23 09:33:16;;;;;;;0.93;0.60;;;;;;;15.02;57.69;96813.22;5030526;28;20195;-72
2021/05/23 09:35:43;;;;;;;0.83;0.70;;;;;;;15.13;56.13;96825.44;5032326;28;20181;-70
2021/05/23 09:38:09;;;;;;;0.50;0.50;;;;;;;14.85;56.43;96820.50;5007577;28;20190;-70
2021/05/23 09:40:41;;;;;;;0.77;0.50;;;;;;;14.66;58.86;96819.25;5018591;28;20624;-71
2021/05/23 09:43:09;;;;;;;0.77;0.70;;;;;;;13.96;56.78;96835.97;5032015;28;20198;-68
2021/05/23 09:45:45;;;;;;;0.73;0.50;;;;;;;13.64;58.44;96843.75;5032959;28;20217;-70
2021/05/23 09:48:27;;;;;;;0.97;0.50;;;;;;;13.16;62.17;96844.38;5032231;28;20190;-68
2021/05/23 09:50:56;;;;;;;1.60;0.60;;;;;;;12.83;66.63;96848.59;5033272;28;20182;-68
2021/05/23 09:53:33;;;;;;;1.50;0.67;;;;;;;12.26;70.61;96863.63;5031580;28;20186;-68
2021/05/23 09:56:07;;;;;;;0.60;0.60;;;;;;;12.13;70.08;96860.50;5032921;28;20206;-68
2021/05/23 09:58:41;;;;;;;0.40;0.40;;;;;;;11.88;71.45;96856.34;5033055;28;20256;-68
2021/05/23 10:01:09;;;;;;;0.80;0.53;;;;;;;11.82;68.72;96859.09;5031746;28;20275;-68
2021/05/23 10:03:38;;;;;;;0.60;0.60;;;;;;;11.98;67.60;96859.16;5032014;28;20199;-68
2021/05/23 10:06:03;;;;;;;0.60;0.60;;;;;;;12.13;70.77;96861.31;5031733;28;20183;-68
2021/05/23 10:08:29;;;;;;;1.00;0.80;;;;;;;12.60;69.42;96861.06;5031701;28;20258;-68
2021/05/23 10:10:56;;;;;;;0.53;0.53;;;;;;;12.87;66.67;96862.09;5032203;28;20697;-68
2021/05/23 10:13:24;;;;;;;0.93;0.70;;;;;;;12.96;64.55;96865.09;5031882;28;20183;-68
2021/05/23 10:15:50;;;;;;;0.90;0.77;;;;;;;13.14;66.02;96857.00;5032289;28;20193;-68
2021/05/23 10:18:15;;;;;;;0.90;0.70;;;;;;;13.35;65.09;96858.09;5030296;28;20182;-68
2021/05/23 10:20:42;;;;;;;0.60;0.60;;;;;;;13.31;64.30;96865.69;5032117;28;20202;-69
2021/05/23 10:23:21;;;;;;;0.97;0.60;;;;;;;13.38;62.82;96857.59;5031307;28;20273;-69
2021/05/23 10:25:52;;;;;;;0.77;0.70;;;;;;;13.44;63.28;96852.16;5022318;28;20198;-69
2021/05/23 10:28:19;;;;;;;0.80;0.80;;;;;;;13.51;62.52;96852.78;5031406;28;20175;-69
2021/05/23 10:30:51;;;;;;;1.33;0.83;;;;;;;13.53;61.48;96857.81;5029165;28;20271;-68
2021/05/23 10:33:17;;;;;;;0.77;0.70;;;;;;;13.63;59.93;96842.16;5030745;28;20274;-69
2021/05/23 10:35:46;;;;;;;0.50;0.50;;;;;;;13.71;60.72;96849.59;5031616;28;20182;-69
2021/05/23 10:38:14;;;;;;;0.47;0.47;;;;;;;13.72;59.02;96851.22;5031569;28;20206;-69
2021/05/23 10:40:59;;;;;;;0.63;0.57;;;;;;;13.74;57.49;96849.94;5031598;28;20551;-69
2021/05/23 10:43:27;;;;;;;0.57;0.57;;;;;;;13.70;55.64;96842.78;5031618;28;20270;-70
2021/05/23 10:46:12;;;;;;;0.50;0.50;;;;;;;13.76;56.41;96841.78;5031748;28;20209;-69
2021/05/23 10:48:38;;;;;;;0.90;0.50;;;;;;;14.07;57.07;96840.28;5032146;28;20191;-69
2021/05/23 10:51:14;;;;;;;0.80;0.60;;;;;;;14.40;56.04;96831.44;5032314;28;20179;-69
2021/05/23 10:53:40;;;;;;;1.90;0.60;;;;;;;14.76;55.11;96838.63;5030854;28;20182;-70
2021/05/23 10:56:06;;;;;;;0.50;0.50;;;;;;;15.15;52.74;96836.56;5031562;28;20834;-69
2021/05/23 10:58:31;;;;;;;0.50;0.50;;;;;;;15.48;51.98;96837.28;5031540;28;20269;-69
2021/05/23 11:00:58;;;;;;;2.53;0.80;;;;;;;15.50;57.00;96841.25;5031130;28;20178;-69
2021/05/23 11:03:26;;;;;;;0.50;0.50;;;;;;;15.66;51.51;96834.25;5026055;28;20206;-69
2021/05/23 11:06:06;;;;;;;0.93;0.60;;;;;;;15.80;50.53;96840.63;5016651;28;20183;-70
2021/05/23 11:08:32;;;;;;;0.40;0.40;;;;;;;15.73;51.21;96848.78;5029366;28;20189;-67
2021/05/23 11:10:59;;;;;;;0.57;0.30;;;;;;;15.63;50.63;96847.94;5023994;28;20194;-67
2021/05/23 11:13:30;;;;;;;0.55;0.47;;;;;;;15.59;49.92;96849.53;5030369;28;20198;-67
2021/05/23 11:15:58;;;;;;;0.43;0.43;;;;;;;15.23;51.91;96859.03;5016683;28;20186;-67
2021/05/23 11:18:27;;;;;;;0.60;0.60;;;;;;;15.04;56.90;96853.38;5031004;28;20187;-67
2021/05/23 11:20:57;;;;;;;2.47;0.50;;;;;;;14.78;57.79;96856.84;5031463;28;20197;-68
2021/05/23 11:23:22;;;;;;;1.27;1.03;;;;;;;14.93;56.82;96856.97;5030677;28;20209;-68
2021/05/23 11:25:49;;;;;;;1.50;0.43;;;;;;;15.28;55.32;96865.16;5026074;28;20182;-68
2021/05/23 11:28:20;;;;;;;0.40;0.40;;;;;;;15.56;53.43;96864.03;5028053;28;20183;-68
2021/05/23 11:30:46;;;;;;;2.10;0.60;;;;;;;15.77;51.69;96867.59;5022432;28;20198;-68
2021/05/23 11:33:13;;;;;;;0.53;0.40;;;;;;;16.04;50.42;96862.94;5011433;28;20570;-68